Time;durP1;ratioP1;P1;durP2;ratioP2;P2;SDS_P1;SDS_P2;PMS_P1;PMS_P2;Temp;Humidity;BMP_temperature;BMP_pressure;BME280_temperature;BME280_humidity;BME280_pressure;Samples;Min_cycle;Max_cycle;Signal;HPM_P1;HPM_P2
2023/02/12 00:00:09;;;;;;;17.77;10.18;;;;;;;1.62;95.29;100284.70;1753909;80;21613;-61
2023/02/12 00:02:43;;;;;;;18.70;9.93;;;;;;;1.64;95.44;100291.30;1753978;82;21558;-61
2023/02/12 00:05:15;;;;;;;18.90;9.78;;;;;;;1.63;95.47;100292.30;1754020;81;21542;-62
2023/02/12 00:07:44;;;;;;;15.40;8.58;;;;;;;1.64;95.47;100297.56;1753880;82;21543;-62
2023/02/12 00:10:13;;;;;;;15.43;8.85;;;;;;;1.66;95.56;100299.62;1753999;82;21115;-61
2023/02/12 00:12:44;;;;;;;18.32;8.85;;;;;;;1.63;95.63;100306.66;1754056;81;21154;-60
2023/02/12 00:15:12;;;;;;;13.40;8.35;;;;;;;1.62;95.72;100306.80;1753940;82;21550;-61
2023/02/12 00:17:41;;;;;;;16.95;9.05;;;;;;;1.62;95.85;100309.50;1751814;82;21162;-62
2023/02/12 00:20:11;;;;;;;13.70;7.70;;;;;;;1.63;95.90;100316.60;1751823;82;21586;-62
2023/02/12 00:22:41;;;;;;;14.45;7.78;;;;;;;1.64;95.94;100316.46;1751802;82;21162;-63
2023/02/12 00:25:10;;;;;;;17.70;9.20;;;;;;;1.65;96.04;100324.91;1752096;80;21523;-63
2023/02/12 00:27:40;;;;;;;16.65;8.38;;;;;;;1.67;96.07;100327.48;1752072;82;21230;-63
2023/02/12 00:30:13;;;;;;;16.77;8.83;;;;;;;1.68;96.09;100326.48;1751866;81;21562;-63
2023/02/12 00:32:45;;;;;;;16.77;8.30;;;;;;;1.65;96.12;100329.47;1751983;82;21087;-62
2023/02/12 00:35:16;;;;;;;14.50;8.25;;;;;;;1.65;96.21;100342.97;1751764;82;21166;-63
2023/02/12 00:37:45;;;;;;;14.03;7.45;;;;;;;1.67;96.28;100335.08;1751965;82;21167;-61
2023/02/12 00:40:14;;;;;;;12.70;7.55;;;;;;;1.69;96.31;100340.34;1751986;80;21534;-62
2023/02/12 00:42:46;;;;;;;14.85;7.60;;;;;;;1.70;96.34;100348.30;1733478;82;21142;-62
2023/02/12 00:45:16;;;;;;;15.20;8.08;;;;;;;1.69;96.43;100352.49;1752020;81;21305;-63
2023/02/12 00:47:46;;;;;;;13.25;7.47;;;;;;;1.70;96.48;100351.00;1751673;82;21130;-62
2023/02/12 00:50:17;;;;;;;13.75;7.70;;;;;;;1.72;96.51;100358.96;1752086;82;21126;-62
2023/02/12 00:52:45;;;;;;;13.18;7.55;;;;;;;1.73;96.50;100357.47;1751931;80;21142;-62
2023/02/12 00:55:14;;;;;;;12.20;6.67;;;;;;;1.76;96.51;100362.59;1751817;82;21643;-62
2023/02/12 00:57:42;;;;;;;13.72;8.20;;;;;;;1.78;96.51;100361.09;1715850;83;21580;-63
2023/02/12 01:00:14;;;;;;;18.15;7.85;;;;;;;1.79;96.52;100351.50;1751809;81;21104;-62
2023/02/12 01:02:43;;;;;;;14.05;7.15;;;;;;;1.79;96.51;100366.84;1751648;81;21628;-60
2023/02/12 01:05:11;;;;;;;11.75;6.47;;;;;;;1.78;96.52;100370.05;1752070;82;21119;-62
2023/02/12 01:07:42;;;;;;;14.10;6.83;;;;;;;1.79;96.53;100378.50;1751829;81;21107;-62
2023/02/12 01:10:11;;;;;;;11.22;6.42;;;;;;;1.81;96.51;100382.42;1752173;81;21135;-63
2023/02/12 01:12:39;;;;;;;11.00;6.08;;;;;;;1.81;96.53;100382.42;1751759;82;21159;-64
2023/02/12 01:15:10;;;;;;;9.88;5.85;;;;;;;1.83;96.52;100384.48;1751831;81;21119;-62
2023/02/12 01:17:38;;;;;;;9.95;5.50;;;;;;;1.83;96.50;100393.44;1756347;81;21110;-62
2023/02/12 01:20:11;;;;;;;10.78;5.53;;;;;;;1.85;96.49;100393.30;1756815;82;21139;-62
2023/02/12 01:22:41;;;;;;;10.35;5.40;;;;;;;1.85;96.43;100397.34;1757106;81;21515;-63
2023/02/12 01:25:09;;;;;;;9.38;5.10;;;;;;;1.85;96.38;100396.84;1757320;82;21142;-63
2023/02/12 01:27:40;;;;;;;7.47;4.10;;;;;;;1.86;96.39;100390.45;1757382;81;21107;-62
2023/02/12 01:30:11;;;;;;;9.38;5.03;;;;;;;1.85;96.35;100397.34;1757251;81;21107;-63
2023/02/12 01:32:40;;;;;;;8.43;4.53;;;;;;;1.86;96.29;100408.51;1757127;80;21111;-67
2023/02/12 01:35:09;;;;;;;8.65;4.55;;;;;;;1.87;96.19;100409.72;1757145;82;21202;-62
2023/02/12 01:37:39;;;;;;;8.10;4.45;;;;;;;1.88;96.06;100419.53;1757346;82;21217;-62
2023/02/12 01:40:11;;;;;;;6.03;3.72;;;;;;;1.90;95.90;100423.44;1756788;82;21119;-62
2023/02/12 01:42:41;;;;;;;6.12;4.05;;;;;;;1.90;95.82;100441.00;1757235;81;21194;-62
2023/02/12 01:45:18;;;;;;;5.60;3.35;;;;;;;1.91;95.65;100431.41;1757117;81;21150;-62
2023/02/12 01:47:46;;;;;;;;;;;;;;;1.91;95.34;100439.50;1723681;83;21150;-62
2023/02/12 01:50:19;;;;;;;5.50;3.22;;;;;;;1.89;94.95;100450.09;1721053;83;20356;-61
2023/02/12 01:52:51;;;;;;;5.25;3.10;;;;;;;1.90;94.77;100457.20;1703254;84;21151;-62
2023/02/12 01:55:20;;;;;;;5.83;2.92;;;;;;;1.90;94.33;100460.77;1692510;85;21181;-62
2023/02/12 01:57:50;;;;;;;4.40;2.70;;;;;;;1.91;94.18;100476.48;1721143;83;21546;-62
2023/02/12 02:00:22;;;;;;;4.67;3.02;;;;;;;1.92;94.04;100487.64;1679493;84;21642;-62
2023/02/12 02:02:56;;;;;;;4.97;2.77;;;;;;;1.89;93.93;100482.52;1692298;85;21125;-63
2023/02/12 02:05:42;;;;;;;3.67;2.60;;;;;;;1.89;93.91;100482.52;1721112;82;21546;-64
2023/02/12 02:08:11;;;;;;;5.42;3.02;;;;;;;1.90;93.90;100486.92;1703134;84;21142;-63
2023/02/12 02:10:40;;;;;;;5.05;3.22;;;;;;;1.88;93.90;100506.48;1692514;85;21137;-62
2023/02/12 02:16:00;;;;;;;4.47;2.60;;;;;;;1.89;94.04;100507.69;1703278;84;21131;-63
2023/02/12 02:18:45;;;;;;;3.12;2.10;;;;;;;1.88;94.05;100514.08;1751764;82;21151;-64
2023/02/12 02:21:35;;;;;;;6.22;2.72;;;;;;;1.89;93.89;100521.20;1751767;80;21617;-62
2023/02/12 02:24:30;;;;;;;3.62;2.20;;;;;;;1.91;93.80;100534.56;1751967;82;21549;-62
2023/02/12 02:27:17;;;;;;;2.95;2.02;;;;;;;1.93;93.61;100535.78;1751832;82;21534;-62
2023/02/12 02:30:16;;;;;;;2.70;1.90;;;;;;;1.93;93.38;100546.09;1751661;82;21620;-64
2023/02/12 02:32:55;;;;;;;4.10;1.90;;;;;;;1.94;93.13;100555.91;1751600;82;21139;-63
2023/02/12 02:35:29;;;;;;;2.72;1.25;;;;;;;1.92;92.81;100560.59;1752010;81;21503;-61
2023/02/12 02:38:21;;;;;;;1.92;0.90;;;;;;;1.84;91.71;100579.34;1751910;82;21114;-63
2023/02/12 02:41:10;;;;;;;1.82;0.90;;;;;;;1.73;91.12;100599.20;1751745;81;21111;-62
2023/02/12 02:43:49;;;;;;;1.30;0.90;;;;;;;1.63;90.80;100598.31;1708260;83;21668;-62
2023/02/12 02:46:42;;;;;;;0.82;0.68;;;;;;;1.54;90.72;100609.92;1751538;82;21143;-63
2023/02/12 02:49:33;;;;;;;1.10;0.82;;;;;;;1.45;90.65;100621.03;1751730;82;21142;-64
2023/02/12 02:52:07;;;;;;;1.62;0.95;;;;;;;1.40;90.64;100617.88;1751762;81;21503;-61
2023/02/12 02:54:51;;;;;;;1.30;0.80;;;;;;;1.37;89.95;100636.19;1751602;81;21123;-62
2023/02/12 02:57:43;;;;;;;1.20;0.80;;;;;;;1.33;89.02;100645.55;1751584;81;21159;-62
2023/02/12 03:00:17;;;;;;;1.02;0.70;;;;;;;1.26;88.38;100637.94;1751705;81;21099;-62
2023/02/12 03:02:57;;;;;;;0.98;0.72;;;;;;;1.23;88.11;100644.95;1751709;82;21107;-63
2023/02/12 03:05:31;;;;;;;1.67;0.60;;;;;;;1.20;87.64;100658.71;1751619;80;21135;-62
2023/02/12 03:08:11;;;;;;;1.47;0.78;;;;;;;1.18;86.87;100660.69;1751922;81;21087;-63
2023/02/12 03:10:49;;;;;;;1.55;0.50;;;;;;;1.16;84.78;100663.16;1751806;80;21569;-63
2023/02/12 03:13:23;;;;;;;1.52;0.80;;;;;;;1.13;83.33;100678.26;1752042;81;21624;-64
2023/02/12 03:16:12;;;;;;;2.47;0.72;;;;;;;1.11;82.17;100689.18;1751664;81;21158;-63
2023/02/12 03:18:49;;;;;;;1.02;0.55;;;;;;;1.11;81.93;100699.12;1751999;81;21166;-62
2023/02/12 03:21:23;;;;;;;1.50;0.80;;;;;;;1.10;81.94;100706.36;1751530;81;21579;-62
2023/02/12 03:24:06;;;;;;;3.45;0.60;;;;;;;1.09;81.87;100706.00;1751975;82;21531;-62
2023/02/12 03:26:46;;;;;;;1.92;0.70;;;;;;;1.09;81.72;100717.28;1751671;82;21205;-61
2023/02/12 03:29:15;;;;;;;5.15;0.80;;;;;;;1.05;81.63;100723.42;1751995;82;21083;-61
2023/02/12 03:31:55;;;;;;;1.05;0.60;;;;;;;1.02;81.62;100737.18;1751910;80;21605;-62
2023/02/12 03:34:35;;;;;;;1.20;0.65;;;;;;;1.00;81.52;100749.08;1751763;82;21554;-62
2023/02/12 03:37:11;;;;;;;1.35;0.70;;;;;;;0.98;81.59;100747.86;1751998;81;21170;-64
2023/02/12 03:39:58;;;;;;;1.30;0.60;;;;;;;0.95;81.13;100764.30;1752074;81;21083;-62
2023/02/12 03:42:37;;;;;;;;;;;;;;;0.90;80.74;100774.62;1754719;81;21230;-63
2023/02/12 03:45:38;;;;;;;1.57;0.57;;;;;;;0.86;80.53;100787.50;1751677;80;20561;-63
2023/02/12 03:48:38;;;;;;;2.80;0.50;;;;;;;0.81;79.81;100780.28;1752025;81;21266;-61
2023/02/12 03:51:34;;;;;;;1.10;0.60;;;;;;;0.72;78.53;100818.78;1751969;80;21162;-63
2023/02/12 03:54:03;;;;;;;1.55;0.60;;;;;;;0.68;78.37;100813.27;1751886;81;21634;-60
2023/02/12 03:56:37;;;;;;;0.75;0.60;;;;;;;0.62;77.72;100838.87;1751915;82;21139;-62
2023/02/12 03:59:06;;;;;;;4.53;0.72;;;;;;;0.60;77.44;100833.23;1751978;82;21543;-62
2023/02/12 04:01:35;;;;;;;2.02;0.50;;;;;;;0.59;77.26;100835.07;1715727;82;21114;-61
2023/02/12 04:04:05;;;;;;;2.70;0.60;;;;;;;0.56;76.71;100853.33;1751954;82;21554;-62
2023/02/12 04:06:34;;;;;;;0.80;0.40;;;;;;;0.52;75.33;100872.94;1751795;82;21534;-62
2023/02/12 04:09:08;;;;;;;2.30;0.60;;;;;;;0.49;74.67;100865.58;1752058;82;21522;-62
2023/02/12 04:12:15;;;;;;;3.95;0.40;;;;;;;0.44;74.45;100875.88;1751781;81;21594;-63
2023/02/12 04:15:08;;;;;;;1.37;0.70;;;;;;;0.39;73.78;100876.23;1752152;82;21123;-62
2023/02/12 04:18:01;;;;;;;1.30;0.60;;;;;;;0.34;73.12;100877.09;1748072;81;21151;-62
2023/02/12 04:20:48;;;;;;;2.40;0.60;;;;;;;0.30;73.15;100888.59;1743965;82;21206;-61
2023/02/12 04:23:27;;;;;;;3.87;1.23;;;;;;;0.26;72.56;100884.42;1743951;81;21194;-62
2023/02/12 04:26:23;;;;;;;2.90;0.50;;;;;;;0.23;72.79;100893.23;1743846;81;21138;-61
2023/02/12 04:29:14;;;;;;;1.47;0.70;;;;;;;0.20;72.74;100898.87;1744012;81;21115;-63
2023/02/12 04:32:31;;;;;;;1.98;0.65;;;;;;;0.19;73.05;100908.79;1744076;82;21584;-62
2023/02/12 04:35:12;;;;;;;3.30;0.62;;;;;;;0.17;72.93;100917.48;1744130;82;21143;-62
2023/02/12 04:37:50;;;;;;;3.62;0.70;;;;;;;0.16;72.56;100917.59;1727929;82;21107;-63
2023/02/12 04:40:19;;;;;;;3.15;0.93;;;;;;;0.15;72.17;100925.31;1743525;82;21191;-63
2023/02/12 04:42:50;;;;;;;1.42;0.50;;;;;;;0.11;71.68;100942.20;1743636;82;21167;-63
2023/02/12 04:45:28;;;;;;;3.20;0.60;;;;;;;0.07;71.04;100942.06;1743973;82;21575;-62
2023/02/12 04:48:00;;;;;;;2.70;0.95;;;;;;;0.03;70.26;100937.89;1743780;81;21103;-61
2023/02/12 04:50:40;;;;;;;2.85;0.60;;;;;;;-0.02;70.10;100930.12;1743860;81;21569;-63
2023/02/12 04:53:10;;;;;;;2.83;0.68;;;;;;;-0.02;70.42;100940.04;1743916;82;21551;-62
2023/02/12 04:55:39;;;;;;;2.30;0.85;;;;;;;-0.02;70.20;100948.98;1743835;81;21660;-62
2023/02/12 04:58:08;;;;;;;2.37;0.80;;;;;;;-0.02;70.17;100961.09;1743563;82;21309;-62
2023/02/12 05:00:36;;;;;;;2.85;0.60;;;;;;;-0.02;69.95;100968.33;1744062;81;21150;-63
2023/02/12 05:03:05;;;;;;;2.55;0.65;;;;;;;-0.05;69.79;100977.98;1743869;82;21116;-63
2023/02/12 05:05:35;;;;;;;2.45;0.50;;;;;;;-0.09;69.72;100985.44;1743699;82;21311;-62
2023/02/12 05:08:05;;;;;;;1.00;0.60;;;;;;;-0.14;69.56;100983.58;1743789;81;21131;-62
2023/02/12 05:10:35;;;;;;;2.47;1.02;;;;;;;-0.17;69.57;100990.53;1701826;84;21143;-62
2023/02/12 05:13:06;;;;;;;3.40;0.80;;;;;;;-0.19;69.84;101002.40;1701639;84;21189;-63
2023/02/12 05:15:38;;;;;;;1.67;0.75;;;;;;;-0.20;70.08;101010.10;1701664;84;21087;-63
2023/02/12 05:18:07;;;;;;;2.17;0.80;;;;;;;-0.21;70.26;101012.42;1701687;84;21174;-62
2023/02/12 05:20:37;;;;;;;1.67;0.78;;;;;;;-0.23;70.37;101016.58;1701536;84;21689;-63
2023/02/12 05:23:06;;;;;;;0.93;0.50;;;;;;;-0.22;70.57;101026.86;1701672;84;21665;-62
2023/02/12 05:25:36;;;;;;;2.62;0.70;;;;;;;-0.22;70.70;101030.41;1701681;83;21175;-61
2023/02/12 05:28:04;;;;;;;4.00;0.70;;;;;;;-0.23;70.92;101034.08;1713114;82;21142;-63
2023/02/12 05:30:33;;;;;;;2.08;0.70;;;;;;;-0.20;71.14;101036.55;1754138;82;21181;-63
2023/02/12 05:33:02;;;;;;;1.60;0.70;;;;;;;-0.18;71.00;101043.16;1754169;82;21530;-63
2023/02/12 05:35:34;;;;;;;3.75;0.90;;;;;;;-0.18;71.16;101048.55;1754190;82;21091;-62
2023/02/12 05:38:03;;;;;;;8.13;1.17;;;;;;;-0.17;71.29;101054.31;1735783;82;21118;-64
2023/02/12 05:40:34;;;;;;;4.25;1.00;;;;;;;-0.18;71.35;101062.88;1753987;82;21150;-63
2023/02/12 05:43:03;;;;;;;4.25;1.00;;;;;;;-0.17;71.31;101068.64;1753975;82;21563;-61
2023/02/12 05:45:35;;;;;;;2.12;1.10;;;;;;;-0.18;71.35;101070.09;1754137;82;21091;-64
2023/02/12 05:48:04;;;;;;;4.40;1.05;;;;;;;-0.17;71.26;101074.51;1753741;82;21600;-63
2023/02/12 05:50:34;;;;;;;3.20;1.20;;;;;;;-0.18;70.96;101091.64;1753883;81;21104;-62
2023/02/12 05:53:06;;;;;;;1.82;0.85;;;;;;;-0.18;70.71;101083.56;1735638;82;21154;-62
2023/02/12 05:55:36;;;;;;;4.72;1.10;;;;;;;-0.15;70.82;101086.03;1754128;81;21178;-63
2023/02/12 05:58:06;;;;;;;3.92;0.85;;;;;;;-0.14;70.37;101091.30;1753792;82;21531;-63
2023/02/12 06:00:34;;;;;;;4.87;1.10;;;;;;;-0.15;69.79;101092.77;1753791;82;21182;-64
2023/02/12 06:03:03;;;;;;;3.15;1.00;;;;;;;-0.16;69.25;101095.08;1754198;81;21527;-65
2023/02/12 06:05:33;;;;;;;3.58;0.95;;;;;;;-0.19;68.31;101110.98;1753841;80;21088;-63
2023/02/12 06:08:04;;;;;;;2.02;0.90;;;;;;;-0.21;68.20;101124.18;1753829;82;21647;-62
2023/02/12 06:10:34;;;;;;;4.78;1.57;;;;;;;-0.21;67.87;101133.61;1753930;81;21565;-63
2023/02/12 06:13:05;;;;;;;4.17;1.15;;;;;;;-0.22;67.41;101124.66;1754014;80;21170;-62
2023/02/12 06:15:36;;;;;;;2.25;0.72;;;;;;;-0.22;67.17;101134.58;1753849;82;21591;-62
2023/02/12 06:18:06;;;;;;;1.32;0.65;;;;;;;-0.25;67.10;101132.97;1755176;81;21155;-62
2023/02/12 06:20:38;;;;;;;1.92;0.93;;;;;;;-0.26;66.74;101142.50;1757083;82;21563;-63
2023/02/12 06:23:07;;;;;;;3.70;1.20;;;;;;;-0.28;66.55;101145.78;1757073;82;21111;-62
2023/02/12 06:25:36;;;;;;;1.67;0.70;;;;;;;-0.29;66.21;101145.41;1757269;82;21107;-63
2023/02/12 06:28:07;;;;;;;2.05;0.70;;;;;;;-0.28;66.13;101155.21;1757220;82;21182;-64
2023/02/12 06:30:35;;;;;;;1.55;0.75;;;;;;;-0.29;65.72;101157.53;1757326;82;21566;-62
2023/02/12 06:33:05;;;;;;;5.05;1.02;;;;;;;-0.33;65.45;101159.58;1757135;81;21087;-63
2023/02/12 06:35:35;;;;;;;1.57;0.90;;;;;;;-0.35;65.69;101162.38;1757161;81;21625;-63
2023/02/12 06:38:06;;;;;;;2.50;0.90;;;;;;;-0.36;65.69;101162.49;1757030;82;21168;-63
2023/02/12 06:40:34;;;;;;;4.08;1.00;;;;;;;-0.35;65.99;101173.64;1757280;80;21158;-63
2023/02/12 06:43:04;;;;;;;3.87;1.00;;;;;;;-0.33;65.97;101184.67;1757246;82;21571;-62
2023/02/12 06:45:34;;;;;;;3.27;0.82;;;;;;;-0.32;65.86;101165.34;1757050;80;21103;-61
2023/02/12 06:48:02;;;;;;;2.52;0.70;;;;;;;-0.29;66.23;101173.20;1757233;82;21115;-63
2023/02/12 06:50:32;;;;;;;1.02;0.70;;;;;;;-0.24;66.14;101179.60;1757095;81;21142;-63
2023/02/12 06:53:01;;;;;;;3.37;1.12;;;;;;;-0.21;65.99;101186.12;1757343;82;21103;-62
2023/02/12 06:55:31;;;;;;;2.95;1.10;;;;;;;-0.18;65.93;101184.06;1757054;81;21613;-61
2023/02/12 06:58:00;;;;;;;1.50;0.80;;;;;;;-0.13;65.89;101187.78;1757194;81;21159;-61
2023/02/12 07:00:30;;;;;;;3.67;0.90;;;;;;;-0.12;65.66;101199.79;1756974;82;21075;-63
2023/02/12 07:02:59;;;;;;;3.42;1.20;;;;;;;-0.11;65.38;101198.81;1757055;80;21566;-63
2023/02/12 07:05:28;;;;;;;3.67;1.70;;;;;;;-0.10;65.27;101193.80;1757475;82;21510;-63
2023/02/12 07:07:56;;;;;;;3.95;1.20;;;;;;;-0.06;65.61;101201.18;1757115;82;21154;-62
2023/02/12 07:10:25;;;;;;;4.10;1.33;;;;;;;0.00;66.08;101199.42;1757084;82;21545;-62
2023/02/12 07:12:55;;;;;;;3.75;1.35;;;;;;;0.08;66.22;101210.51;1757246;81;21160;-62
2023/02/12 07:15:24;;;;;;;3.75;1.50;;;;;;;0.12;66.15;101206.63;1757079;82;21523;-62
2023/02/12 07:17:53;;;;;;;2.35;1.00;;;;;;;0.13;65.87;101207.00;1757077;82;21618;-62
2023/02/12 07:20:22;;;;;;;3.98;1.27;;;;;;;0.15;66.01;101205.53;1757399;81;21166;-63
2023/02/12 07:22:51;;;;;;;3.30;1.05;;;;;;;0.22;66.08;101223.84;1757185;82;21142;-62
2023/02/12 07:25:19;;;;;;;5.03;1.30;;;;;;;0.27;66.01;101235.16;1757490;82;21151;-60
2023/02/12 07:27:49;;;;;;;2.77;1.00;;;;;;;0.29;65.74;101223.77;1706897;84;21429;-62
2023/02/12 07:30:19;;;;;;;2.87;1.40;;;;;;;0.30;65.80;101226.84;1707365;84;21546;-61
2023/02/12 07:32:48;;;;;;;3.45;1.02;;;;;;;0.33;66.09;101230.29;1707049;84;21178;-62
2023/02/12 07:35:17;;;;;;;3.45;1.50;;;;;;;0.36;66.25;101238.15;1707364;84;21642;-63
2023/02/12 07:37:46;;;;;;;2.65;1.07;;;;;;;0.41;66.14;101231.94;1707091;84;21175;-61
2023/02/12 07:40:15;;;;;;;2.40;1.20;;;;;;;0.43;65.26;101227.30;1707006;84;21594;-62
2023/02/12 07:42:43;;;;;;;2.62;1.05;;;;;;;0.40;65.40;101231.56;1707063;84;21264;-62
2023/02/12 07:45:13;;;;;;;3.25;1.42;;;;;;;0.39;64.90;101236.58;1716171;82;21570;-61
2023/02/12 07:47:42;;;;;;;3.50;1.17;;;;;;;0.37;64.78;101228.61;1757312;82;21142;-61
2023/02/12 07:50:11;;;;;;;3.50;1.20;;;;;;;0.39;64.13;101247.36;1757193;81;21550;-63
2023/02/12 07:52:40;;;;;;;2.05;1.10;;;;;;;0.40;63.59;101250.43;1757089;81;21632;-61
2023/02/12 07:55:09;;;;;;;3.45;1.32;;;;;;;0.40;63.68;101250.43;1756944;82;21543;-62
2023/02/12 07:57:38;;;;;;;2.42;1.00;;;;;;;0.43;63.44;101261.86;1757489;80;21554;-62
2023/02/12 08:00:07;;;;;;;2.55;1.10;;;;;;;0.50;63.18;101252.83;1757065;82;21099;-61
2023/02/12 08:02:39;;;;;;;2.00;1.00;;;;;;;0.63;63.41;101264.44;1757390;82;21185;-62
2023/02/12 08:05:08;;;;;;;1.95;0.93;;;;;;;0.80;62.78;101269.48;1757086;82;21145;-62
2023/02/12 08:07:38;;;;;;;6.25;1.87;;;;;;;0.98;62.56;101271.78;1757432;81;21566;-63
2023/02/12 08:10:08;;;;;;;4.58;1.20;;;;;;;1.27;61.83;101280.75;1757097;82;21593;-63
2023/02/12 08:12:36;;;;;;;2.45;0.70;;;;;;;1.62;61.11;101281.76;1757445;81;21173;-61
2023/02/12 08:15:07;;;;;;;3.42;1.22;;;;;;;1.83;59.45;101284.14;1757173;80;21151;-61
2023/02/12 08:17:36;;;;;;;3.10;1.25;;;;;;;1.94;58.60;101286.00;1757218;82;21649;-63
2023/02/12 08:20:07;;;;;;;2.98;1.10;;;;;;;2.01;57.76;101288.63;1744606;81;21151;-62
2023/02/12 08:22:36;;;;;;;2.75;1.00;;;;;;;2.07;57.89;101298.95;1744050;82;21174;-63
2023/02/12 08:25:05;;;;;;;2.62;0.70;;;;;;;2.12;57.74;101299.45;1743891;81;21111;-62
2023/02/12 08:27:33;;;;;;;2.60;1.10;;;;;;;2.23;57.78;101292.70;1744135;82;21190;-62
2023/02/12 08:30:02;;;;;;;5.03;1.22;;;;;;;2.44;56.92;101290.11;1743788;82;21148;-62
2023/02/12 08:32:32;;;;;;;1.52;0.90;;;;;;;2.74;56.41;101290.36;1743430;82;21633;-63
2023/02/12 08:35:02;;;;;;;2.17;1.00;;;;;;;2.92;54.74;101311.48;1744004;81;21226;-62
2023/02/12 08:37:32;;;;;;;3.25;0.90;;;;;;;3.01;53.44;101314.78;1744046;82;22132;-62
2023/02/12 08:40:01;;;;;;;3.20;0.95;;;;;;;3.03;53.43;101307.40;1743783;82;21539;-61
2023/02/12 08:42:30;;;;;;;2.65;0.90;;;;;;;3.06;52.94;101312.56;1743838;81;21123;-61
2023/02/12 08:44:59;;;;;;;1.12;0.70;;;;;;;3.15;53.80;101314.50;1743768;81;21539;-61
2023/02/12 08:47:30;;;;;;;2.90;0.72;;;;;;;3.24;53.23;101316.94;1743971;82;21816;-60
2023/02/12 08:49:59;;;;;;;3.20;1.12;;;;;;;3.27;52.76;101314.86;1744054;81;21115;-63
2023/02/12 08:52:29;;;;;;;3.08;1.10;;;;;;;3.15;52.44;101323.98;1743979;82;21589;-62
2023/02/12 08:55:00;;;;;;;1.80;0.80;;;;;;;3.04;52.18;101325.36;1744539;81;21552;-63
2023/02/12 08:57:29;;;;;;;1.37;1.00;;;;;;;2.78;52.68;101312.13;1647637;85;21191;-63
2023/02/12 08:59:58;;;;;;;1.57;0.82;;;;;;;2.61;53.26;101318.53;1706383;84;21108;-63
2023/02/12 09:02:27;;;;;;;1.80;0.93;;;;;;;2.41;54.29;101329.08;1706174;83;21652;-64
2023/02/12 09:04:56;;;;;;;2.87;1.20;;;;;;;2.31;54.78;101339.41;1706027;84;21186;-63
2023/02/12 09:07:26;;;;;;;2.08;0.80;;;;;;;2.23;55.21;101350.34;1706053;83;21652;-62
2023/02/12 09:09:55;;;;;;;5.08;1.55;;;;;;;2.20;55.79;101355.13;1702033;84;21581;-65
2023/02/12 09:12:24;;;;;;;3.60;1.10;;;;;;;2.20;55.62;101347.02;1702396;82;21523;-64
2023/02/12 09:14:54;;;;;;;12.28;1.35;;;;;;;2.18;57.25;101353.03;1766293;81;21519;-64
2023/02/12 09:17:26;;;;;;;1.32;0.68;;;;;;;2.11;55.44;101340.48;1774117;81;21612;-62
2023/02/12 09:19:56;;;;;;;3.00;0.95;;;;;;;2.04;55.07;101343.79;1707938;83;21134;-63
2023/02/12 09:22:25;;;;;;;2.37;0.90;;;;;;;1.90;54.47;101340.28;1743707;82;21127;-65
2023/02/12 09:24:55;;;;;;;15.18;1.55;;;;;;;1.83;55.31;101355.74;1707651;84;21131;-64
2023/02/12 09:27:24;;;;;;;4.42;0.90;;;;;;;1.77;54.95;101348.97;1754945;81;21156;-65
2023/02/12 09:29:53;;;;;;;4.83;1.10;;;;;;;1.76;54.99;101351.80;1743606;82;21580;-64
2023/02/12 09:32:21;;;;;;;2.15;0.80;;;;;;;1.72;54.25;101359.27;1743569;82;21192;-63
2023/02/12 09:34:51;;;;;;;4.80;0.78;;;;;;;1.71;54.32;101359.39;1743556;81;21125;-64
2023/02/12 09:37:19;;;;;;;2.15;0.88;;;;;;;1.73;54.66;101371.80;1743696;81;21113;-63
2023/02/12 09:39:50;;;;;;;4.08;0.80;;;;;;;1.75;54.69;101370.33;1743716;82;21184;-65
2023/02/12 09:42:51;;;;;;;4.95;0.60;;;;;;;1.76;54.54;101374.75;1743597;82;21121;-65
2023/02/12 09:45:26;;;;;;;7.35;1.20;;;;;;;1.74;53.96;101374.88;1743441;81;21151;-65
2023/02/12 09:48:18;;;;;;;8.58;1.55;;;;;;;1.71;53.73;101365.66;1743887;82;21186;-65
2023/02/12 09:50:59;;;;;;;8.53;1.00;;;;;;;1.73;54.40;101366.40;1741467;81;21573;-65
2023/02/12 09:53:30;;;;;;;16.20;1.32;;;;;;;1.74;54.44;101363.20;1744037;81;21116;-63
2023/02/12 09:55:58;;;;;;;7.15;1.27;;;;;;;1.75;54.75;101359.52;1743636;82;21148;-66
2023/02/12 09:58:52;;;;;;;11.97;1.25;;;;;;;1.78;54.50;101343.94;1743713;81;21149;-65
2023/02/12 10:01:21;;;;;;;6.05;1.40;;;;;;;1.80;54.27;101341.13;1743491;82;21113;-65
2023/02/12 10:03:51;;;;;;;14.80;1.85;;;;;;;1.81;53.95;101350.95;1743531;82;21560;-65
2023/02/12 10:06:28;;;;;;;7.15;1.20;;;;;;;1.84;53.99;101347.52;1743487;81;21133;-65
2023/02/12 10:09:08;;;;;;;7.80;0.80;;;;;;;1.86;53.36;101342.00;1744587;81;21608;-65
2023/02/12 10:12:02;;;;;;;10.60;1.25;;;;;;;1.82;52.83;101348.13;1743661;81;21158;-66
2023/02/12 10:15:00;;;;;;;21.77;2.42;;;;;;;1.79;52.57;101348.36;1753429;81;21084;-64
2023/02/12 10:17:44;;;;;;;11.95;1.92;;;;;;;1.78;52.76;101347.98;1774062;80;21617;-66
2023/02/12 10:20:41;;;;;;;9.15;1.15;;;;;;;1.82;53.23;101356.23;1774203;80;21103;-65
2023/02/12 10:23:36;;;;;;;11.95;1.15;;;;;;;1.83;52.82;101361.15;1774252;81;21543;-65
2023/02/12 10:26:22;;;;;;;4.53;0.70;;;;;;;1.83;52.36;101357.09;1774437;81;21088;-64
2023/02/12 10:28:51;;;;;;;13.20;1.32;;;;;;;1.85;52.42;101355.13;1774105;81;21112;-66
2023/02/12 10:31:32;;;;;;;5.05;1.00;;;;;;;1.84;52.45;101363.73;1774101;81;21140;-64
2023/02/12 10:34:01;;;;;;;5.50;0.80;;;;;;;1.85;52.38;101378.11;1774339;81;21116;-64
2023/02/12 10:36:44;;;;;;;6.22;1.10;;;;;;;1.80;51.79;101356.84;1701861;81;21094;-64
2023/02/12 10:39:23;;;;;;;10.28;2.05;;;;;;;1.79;51.49;101371.33;1774210;80;21194;-64
2023/02/12 10:42:09;;;;;;;14.83;1.65;;;;;;;1.76;51.04;101371.56;1774410;81;21167;-64
2023/02/12 10:44:38;;;;;;;9.90;1.35;;;;;;;1.72;52.49;101374.12;1753716;81;21194;-64
2023/02/12 10:47:21;;;;;;;5.85;1.35;;;;;;;1.77;52.33;101367.88;1684907;85;21120;-65
2023/02/12 10:50:00;;;;;;;9.03;1.42;;;;;;;1.80;50.92;101374.41;1685671;83;21122;-66
2023/02/12 10:52:44;;;;;;;9.08;1.10;;;;;;;1.83;51.03;101382.27;1676679;85;21122;-65
2023/02/12 10:55:31;;;;;;;14.28;1.47;;;;;;;1.89;51.82;101368.78;1676824;85;21134;-65
2023/02/12 10:58:02;;;;;;;11.00;1.47;;;;;;;1.94;51.06;101362.53;1676750;85;21102;-64
2023/02/12 11:00:36;;;;;;;3.35;0.70;;;;;;;1.97;50.68;101376.33;1676677;85;21766;-65
2023/02/12 11:03:20;;;;;;;1.98;1.10;;;;;;;1.98;50.48;101383.45;1676694;85;21647;-67
2023/02/12 11:05:49;;;;;;;9.20;1.00;;;;;;;1.99;49.84;101382.48;1676835;85;21102;-64
2023/02/12 11:08:37;;;;;;;3.50;0.90;;;;;;;1.99;49.80;101395.50;1676850;85;21134;-67
2023/02/12 11:11:08;;;;;;;;;;;;;;;2.02;49.92;101397.11;1679220;85;21217;-64
2023/02/12 11:13:39;;;;;;;8.63;1.70;;;;;;;2.00;50.15;101412.58;1676746;85;20216;-64
2023/02/12 11:16:09;;;;;;;5.25;0.53;;;;;;;1.99;50.46;101427.94;1676918;85;21624;-65
2023/02/12 11:18:39;;;;;;;8.95;1.10;;;;;;;1.99;48.90;101409.02;1676117;84;21600;-64
2023/02/12 11:21:12;;;;;;;9.45;1.00;;;;;;;1.96;48.42;101401.14;1688755;84;21167;-64
2023/02/12 11:23:42;;;;;;;6.55;1.45;;;;;;;1.98;49.24;101407.30;1685936;84;21186;-64
2023/02/12 11:26:25;;;;;;;3.62;1.00;;;;;;;1.99;48.22;101415.77;1685677;85;21594;-66
2023/02/12 11:29:02;;;;;;;5.08;0.88;;;;;;;1.99;48.32;101422.53;1685544;85;21594;-67
2023/02/12 11:31:33;;;;;;;14.70;1.40;;;;;;;2.01;48.98;101424.63;1685631;85;21187;-67
2023/02/12 11:34:18;;;;;;;5.42;0.78;;;;;;;2.02;48.29;101419.59;1685990;85;21147;-67
2023/02/12 11:36:49;;;;;;;9.70;1.42;;;;;;;2.03;48.02;101413.20;1685565;85;21584;-67
2023/02/12 11:39:32;;;;;;;12.35;0.93;;;;;;;2.03;47.40;101418.61;1685592;85;21138;-69
2023/02/12 11:42:13;;;;;;;2.72;0.55;;;;;;;1.99;47.14;101410.37;1685447;85;21154;-69
2023/02/12 11:44:41;;;;;;;5.92;0.70;;;;;;;2.00;47.20;101416.14;1684802;85;21114;-68
2023/02/12 11:47:26;;;;;;;7.42;1.62;;;;;;;2.00;47.21;101416.64;1685360;83;21194;-68
2023/02/12 11:50:19;;;;;;;7.58;2.02;;;;;;;2.01;47.05;101416.52;1685689;85;21186;-68
2023/02/12 11:52:50;;;;;;;2.70;1.00;;;;;;;2.05;47.88;101415.30;1686025;85;21217;-68
2023/02/12 11:55:31;;;;;;;10.70;0.85;;;;;;;2.10;47.46;101417.16;1685641;85;21636;-72
2023/02/12 11:58:16;;;;;;;2.17;0.95;;;;;;;2.11;46.71;101422.94;1685501;84;21158;-69
2023/02/12 12:01:08;;;;;;;5.70;0.80;;;;;;;2.10;46.85;101427.97;1685405;84;21158;-69
2023/02/12 12:04:16;;;;;;;6.00;1.17;;;;;;;2.10;46.34;101422.56;1685856;84;21648;-66
2023/02/12 12:06:50;;;;;;;6.25;0.60;;;;;;;2.10;46.27;101428.47;1685611;85;21146;-67